sensor_id;sensor_type;location;lat;lon;timestamp;pressure;altitude;pressure_sealevel;temperature;humidity
13029;BME280;6581;42.662;23.402;2023-04-08T00:02:07;95427.53;;;6.08;77.24
13029;BME280;6581;42.662;23.402;2023-04-08T00:04:35;95418.56;;;6.09;77.50
13029;BME280;6581;42.662;23.402;2023-04-08T00:07:02;95426.34;;;6.18;76.68
13029;BME280;6581;42.662;23.402;2023-04-08T00:09:31;95424.69;;;6.13;76.19
13029;BME280;6581;42.662;23.402;2023-04-08T00:11:58;95428.53;;;6.16;76.41
13029;BME280;6581;42.662;23.402;2023-04-08T00:14:25;95431.56;;;6.06;78.39
13029;BME280;6581;42.662;23.402;2023-04-08T00:16:54;95434.94;;;5.94;78.25
13029;BME280;6581;42.662;23.402;2023-04-08T00:19:21;95434.94;;;5.94;79.54
13029;BME280;6581;42.662;23.402;2023-04-08T00:21:48;95436.31;;;5.92;78.74
13029;BME280;6581;42.662;23.402;2023-04-08T00:24:16;95435.69;;;5.95;78.29
13029;BME280;6581;42.662;23.402;2023-04-08T00:26:44;95435.19;;;5.80;79.16
13029;BME280;6581;42.662;23.402;2023-04-08T00:29:11;95433.44;;;5.85;79.14
13029;BME280;6581;42.662;23.402;2023-04-08T00:31:38;95433.84;;;5.74;80.15
13029;BME280;6581;42.662;23.402;2023-04-08T00:34:05;95435.88;;;5.69;81.20
13029;BME280;6581;42.662;23.402;2023-04-08T00:36:32;95428.59;;;5.54;81.60
13029;BME280;6581;42.662;23.402;2023-04-08T00:39:00;95443.59;;;5.53;81.96
13029;BME280;6581;42.662;23.402;2023-04-08T00:41:30;95436.16;;;5.55;81.97
13029;BME280;6581;42.662;23.402;2023-04-08T00:43:59;95433.31;;;5.60;82.19
13029;BME280;6581;42.662;23.402;2023-04-08T00:46:26;95436.03;;;5.52;82.70
13029;BME280;6581;42.662;23.402;2023-04-08T00:48:53;95436.78;;;5.52;83.29
13029;BME280;6581;42.662;23.402;2023-04-08T00:51:20;95438.00;;;5.55;81.89
13029;BME280;6581;42.662;23.402;2023-04-08T00:53:48;95438.78;;;5.55;81.72
13029;BME280;6581;42.662;23.402;2023-04-08T00:56:15;95441.22;;;5.40;81.54
13029;BME280;6581;42.662;23.402;2023-04-08T00:58:42;95436.56;;;5.45;81.88
13029;BME280;6581;42.662;23.402;2023-04-08T01:01:15;95438.84;;;5.47;81.53
13029;BME280;6581;42.662;23.402;2023-04-08T01:03:49;95439.81;;;5.42;82.17
13029;BME280;6581;42.662;23.402;2023-04-08T01:06:21;95437.75;;;5.48;83.05
13029;BME280;6581;42.662;23.402;2023-04-08T01:08:51;95436.91;;;5.56;82.13
13029;BME280;6581;42.662;23.402;2023-04-08T01:11:19;95436.72;;;5.61;81.59
13029;BME280;6581;42.662;23.402;2023-04-08T01:13:48;95440.59;;;5.63;83.93
13029;BME280;6581;42.662;23.402;2023-04-08T01:16:18;95436.22;;;5.67;83.39
13029;BME280;6581;42.662;23.402;2023-04-08T01:18:46;95441.47;;;5.67;83.78
13029;BME280;6581;42.662;23.402;2023-04-08T01:21:15;95447.09;;;5.78;82.82
13029;BME280;6581;42.662;23.402;2023-04-08T01:23:52;95434.41;;;5.80;80.20
13029;BME280;6581;42.662;23.402;2023-04-08T01:26:23;95437.34;;;5.78;79.04
13029;BME280;6581;42.662;23.402;2023-04-08T01:28:53;95443.16;;;5.72;77.86
13029;BME280;6581;42.662;23.402;2023-04-08T01:31:23;95442.38;;;5.71;77.57
13029;BME280;6581;42.662;23.402;2023-04-08T01:33:51;95445.13;;;5.75;77.91
13029;BME280;6581;42.662;23.402;2023-04-08T01:36:22;95443.69;;;5.77;77.95
13029;BME280;6581;42.662;23.402;2023-04-08T01:38:50;95445.50;;;5.86;77.41
13029;BME280;6581;42.662;23.402;2023-04-08T01:41:17;95446.91;;;5.83;77.66
13029;BME280;6581;42.662;23.402;2023-04-08T01:43:47;95452.81;;;5.80;79.65
13029;BME280;6581;42.662;23.402;2023-04-08T01:46:15;95442.94;;;5.77;81.01
13029;BME280;6581;42.662;23.402;2023-04-08T01:48:43;95441.41;;;5.76;82.16
13029;BME280;6581;42.662;23.402;2023-04-08T01:51:11;95449.72;;;5.78;81.57
13029;BME280;6581;42.662;23.402;2023-04-08T01:53:40;95447.56;;;5.80;81.55
13029;BME280;6581;42.662;23.402;2023-04-08T01:56:36;95446.59;;;5.85;81.29
13029;BME280;6581;42.662;23.402;2023-04-08T01:59:09;95446.78;;;5.79;82.08
13029;BME280;6581;42.662;23.402;2023-04-08T02:01:37;95453.13;;;5.78;79.39
13029;BME280;6581;42.662;23.402;2023-04-08T02:04:05;95455.56;;;5.84;78.23
13029;BME280;6581;42.662;23.402;2023-04-08T02:06:32;95465.91;;;5.89;77.77
13029;BME280;6581;42.662;23.402;2023-04-08T02:09:00;95465.75;;;5.85;77.95
13029;BME280;6581;42.662;23.402;2023-04-08T02:11:27;95465.06;;;5.76;79.44
13029;BME280;6581;42.662;23.402;2023-04-08T02:13:56;95469.66;;;5.79;80.98
13029;BME280;6581;42.662;23.402;2023-04-08T02:16:30;95469.22;;;5.77;79.83
13029;BME280;6581;42.662;23.402;2023-04-08T02:19:05;95471.41;;;5.75;79.01
13029;BME280;6581;42.662;23.402;2023-04-08T02:21:37;95471.91;;;5.68;78.36
13029;BME280;6581;42.662;23.402;2023-04-08T02:24:09;95464.97;;;5.64;79.05
13029;BME280;6581;42.662;23.402;2023-04-08T02:26:40;95466.03;;;5.71;79.93
13029;BME280;6581;42.662;23.402;2023-04-08T02:29:11;95468.00;;;5.74;80.96
13029;BME280;6581;42.662;23.402;2023-04-08T02:31:42;95469.09;;;5.73;79.05
13029;BME280;6581;42.662;23.402;2023-04-08T02:34:10;95468.19;;;5.69;79.70
13029;BME280;6581;42.662;23.402;2023-04-08T02:36:38;95472.25;;;5.67;81.16
13029;BME280;6581;42.662;23.402;2023-04-08T02:39:07;95462.03;;;5.65;82.22
13029;BME280;6581;42.662;23.402;2023-04-08T02:41:34;95464.50;;;5.50;83.90
13029;BME280;6581;42.662;23.402;2023-04-08T02:44:01;95470.38;;;5.47;84.35
13029;BME280;6581;42.662;23.402;2023-04-08T02:46:29;95462.25;;;5.40;85.64
13029;BME280;6581;42.662;23.402;2023-04-08T02:48:57;95462.47;;;5.26;86.39
13029;BME280;6581;42.662;23.402;2023-04-08T02:51:25;95474.06;;;5.25;87.67
13029;BME280;6581;42.662;23.402;2023-04-08T02:53:52;95464.53;;;5.20;88.81
13029;BME280;6581;42.662;23.402;2023-04-08T02:56:20;95462.06;;;5.15;89.45
13029;BME280;6581;42.662;23.402;2023-04-08T02:58:47;95459.44;;;5.15;89.84
13029;BME280;6581;42.662;23.402;2023-04-08T03:01:16;95463.16;;;5.14;89.69
13029;BME280;6581;42.662;23.402;2023-04-08T03:03:43;95463.81;;;5.11;90.86
13029;BME280;6581;42.662;23.402;2023-04-08T03:06:11;95471.97;;;5.10;91.02
13029;BME280;6581;42.662;23.402;2023-04-08T03:08:38;95475.19;;;5.15;91.91
13029;BME280;6581;42.662;23.402;2023-04-08T03:11:05;95468.16;;;5.07;91.69
13029;BME280;6581;42.662;23.402;2023-04-08T03:13:59;95468.41;;;5.14;92.39
13029;BME280;6581;42.662;23.402;2023-04-08T03:16:26;95466.78;;;5.01;93.64
13029;BME280;6581;42.662;23.402;2023-04-08T03:18:53;95464.81;;;4.98;93.96
13029;BME280;6581;42.662;23.402;2023-04-08T03:21:21;95460.00;;;5.00;93.95
13029;BME280;6581;42.662;23.402;2023-04-08T03:23:49;95461.34;;;5.06;94.11
13029;BME280;6581;42.662;23.402;2023-04-08T03:26:16;95465.41;;;5.04;94.34
13029;BME280;6581;42.662;23.402;2023-04-08T03:28:43;95464.75;;;5.07;93.89
13029;BME280;6581;42.662;23.402;2023-04-08T03:31:10;95466.78;;;5.01;95.00
13029;BME280;6581;42.662;23.402;2023-04-08T03:33:37;95472.03;;;5.01;95.23
13029;BME280;6581;42.662;23.402;2023-04-08T03:36:05;95471.00;;;4.94;95.84
13029;BME280;6581;42.662;23.402;2023-04-08T03:38:33;95476.28;;;4.85;96.36
13029;BME280;6581;42.662;23.402;2023-04-08T03:41:00;95479.31;;;4.96;96.97
13029;BME280;6581;42.662;23.402;2023-04-08T03:43:27;95473.13;;;5.00;96.15
13029;BME280;6581;42.662;23.402;2023-04-08T03:45:55;95469.72;;;5.00;96.09
13029;BME280;6581;42.662;23.402;2023-04-08T03:48:22;95470.81;;;4.99;96.43
13029;BME280;6581;42.662;23.402;2023-04-08T03:50:49;95479.00;;;4.97;96.12
13029;BME280;6581;42.662;23.402;2023-04-08T03:53:16;95476.25;;;4.94;96.11
13029;BME280;6581;42.662;23.402;2023-04-08T03:55:44;95471.72;;;5.03;95.79
13029;BME280;6581;42.662;23.402;2023-04-08T03:58:11;95469.28;;;4.98;95.83
13029;BME280;6581;42.662;23.402;2023-04-08T04:00:38;95462.63;;;5.00;96.40
13029;BME280;6581;42.662;23.402;2023-04-08T04:03:06;95460.88;;;5.04;96.88
13029;BME280;6581;42.662;23.402;2023-04-08T04:05:33;95466.78;;;5.01;95.56
13029;BME280;6581;42.662;23.402;2023-04-08T04:08:00;95471.78;;;4.94;95.71
13029;BME280;6581;42.662;23.402;2023-04-08T04:10:27;95466.66;;;4.98;95.55
13029;BME280;6581;42.662;23.402;2023-04-08T04:12:56;95462.47;;;4.97;95.98
13029;BME280;6581;42.662;23.402;2023-04-08T04:15:23;95461.72;;;4.96;96.60
13029;BME280;6581;42.662;23.402;2023-04-08T04:17:50;95470.19;;;5.02;95.89
13029;BME280;6581;42.662;23.402;2023-04-08T04:20:18;95471.31;;;4.92;94.07
13029;BME280;6581;42.662;23.402;2023-04-08T04:22:46;95481.38;;;4.90;94.40
13029;BME280;6581;42.662;23.402;2023-04-08T04:25:13;95482.22;;;5.03;87.86
13029;BME280;6581;42.662;23.402;2023-04-08T04:27:40;95476.97;;;5.03;87.68
13029;BME280;6581;42.662;23.402;2023-04-08T04:30:09;95483.91;;;5.07;85.29
13029;BME280;6581;42.662;23.402;2023-04-08T04:32:40;95487.44;;;5.11;84.25
13029;BME280;6581;42.662;23.402;2023-04-08T04:35:08;95481.31;;;5.28;83.06
13029;BME280;6581;42.662;23.402;2023-04-08T04:37:35;95488.47;;;5.19;82.76
13029;BME280;6581;42.662;23.402;2023-04-08T04:40:02;95480.41;;;5.24;82.52
13029;BME280;6581;42.662;23.402;2023-04-08T04:42:30;95479.06;;;5.18;82.80
13029;BME280;6581;42.662;23.402;2023-04-08T04:44:58;95482.63;;;5.13;84.32
13029;BME280;6581;42.662;23.402;2023-04-08T04:47:51;95482.81;;;5.08;85.70
13029;BME280;6581;42.662;23.402;2023-04-08T04:50:18;95480.19;;;5.08;86.18
13029;BME280;6581;42.662;23.402;2023-04-08T04:52:45;95479.69;;;5.15;86.37
13029;BME280;6581;42.662;23.402;2023-04-08T04:55:12;95476.75;;;5.16;87.60
13029;BME280;6581;42.662;23.402;2023-04-08T04:57:40;95481.91;;;5.33;86.33
13029;BME280;6581;42.662;23.402;2023-04-08T05:00:09;95486.38;;;5.33;85.08
13029;BME280;6581;42.662;23.402;2023-04-08T05:02:36;95494.38;;;5.36;85.21
13029;BME280;6581;42.662;23.402;2023-04-08T05:05:06;95495.03;;;5.33;84.71
13029;BME280;6581;42.662;23.402;2023-04-08T05:07:35;95498.19;;;5.27;85.33
13029;BME280;6581;42.662;23.402;2023-04-08T05:10:02;95493.66;;;5.27;86.42
13029;BME280;6581;42.662;23.402;2023-04-08T05:12:29;95493.03;;;5.30;86.42
13029;BME280;6581;42.662;23.402;2023-04-08T05:14:57;95490.50;;;5.43;86.21
13029;BME280;6581;42.662;23.402;2023-04-08T05:17:24;95487.94;;;5.55;86.55
13029;BME280;6581;42.662;23.402;2023-04-08T05:19:51;95488.69;;;5.55;86.42
13029;BME280;6581;42.662;23.402;2023-04-08T05:22:19;95493.00;;;5.60;85.83
13029;BME280;6581;42.662;23.402;2023-04-08T05:25:12;95488.84;;;5.59;86.61
13029;BME280;6581;42.662;23.402;2023-04-08T05:27:39;95483.84;;;5.66;86.85
13029;BME280;6581;42.662;23.402;2023-04-08T05:30:08;95490.31;;;5.68;86.00
13029;BME280;6581;42.662;23.402;2023-04-08T05:32:59;95490.00;;;5.70;86.83
13029;BME280;6581;42.662;23.402;2023-04-08T05:35:26;95491.91;;;5.61;87.03
13029;BME280;6581;42.662;23.402;2023-04-08T05:37:55;95489.50;;;5.76;87.17
13029;BME280;6581;42.662;23.402;2023-04-08T05:40:22;95484.78;;;5.82;86.29
13029;BME280;6581;42.662;23.402;2023-04-08T05:42:49;95490.25;;;5.98;87.06
13029;BME280;6581;42.662;23.402;2023-04-08T05:45:16;95498.50;;;6.29;86.27
13029;BME280;6581;42.662;23.402;2023-04-08T05:48:09;95488.44;;;6.43;85.17
13029;BME280;6581;42.662;23.402;2023-04-08T05:50:36;95492.53;;;6.65;83.71
13029;BME280;6581;42.662;23.402;2023-04-08T05:53:04;95486.75;;;6.72;83.32
13029;BME280;6581;42.662;23.402;2023-04-08T05:55:31;95491.81;;;6.89;82.27
13029;BME280;6581;42.662;23.402;2023-04-08T05:57:58;95488.66;;;6.95;78.85
13029;BME280;6581;42.662;23.402;2023-04-08T06:00:25;95489.53;;;6.99;79.24
13029;BME280;6581;42.662;23.402;2023-04-08T06:02:52;95490.19;;;7.08;78.60
13029;BME280;6581;42.662;23.402;2023-04-08T06:05:20;95494.78;;;7.24;77.22
13029;BME280;6581;42.662;23.402;2023-04-08T06:07:47;95493.81;;;7.28;77.26
13029;BME280;6581;42.662;23.402;2023-04-08T06:10:17;95482.91;;;7.42;77.12
13029;BME280;6581;42.662;23.402;2023-04-08T06:12:44;95492.75;;;7.57;76.61
13029;BME280;6581;42.662;23.402;2023-04-08T06:15:11;95484.56;;;7.46;76.52
13029;BME280;6581;42.662;23.402;2023-04-08T06:17:38;95486.78;;;7.32;77.32
13029;BME280;6581;42.662;23.402;2023-04-08T06:20:06;95479.25;;;7.58;76.73
13029;BME280;6581;42.662;23.402;2023-04-08T06:22:33;95484.63;;;7.74;76.55
13029;BME280;6581;42.662;23.402;2023-04-08T06:25:00;95485.84;;;7.65;78.37
13029;BME280;6581;42.662;23.402;2023-04-08T06:27:29;95479.06;;;7.91;78.02
13029;BME280;6581;42.662;23.402;2023-04-08T06:29:56;95483.91;;;8.17;76.35
13029;BME280;6581;42.662;23.402;2023-04-08T06:32:23;95485.91;;;8.08;75.68
13029;BME280;6581;42.662;23.402;2023-04-08T06:34:51;95489.78;;;8.26;75.43
13029;BME280;6581;42.662;23.402;2023-04-08T06:37:18;95486.03;;;8.39;75.77
13029;BME280;6581;42.662;23.402;2023-04-08T06:39:45;95490.13;;;8.53;74.82
13029;BME280;6581;42.662;23.402;2023-04-08T06:42:12;95495.53;;;8.72;74.20
13029;BME280;6581;42.662;23.402;2023-04-08T06:45:03;95488.63;;;8.99;74.00
13029;BME280;6581;42.662;23.402;2023-04-08T06:47:54;95496.72;;;9.06;73.32
13029;BME280;6581;42.662;23.402;2023-04-08T06:50:21;95491.09;;;9.23;72.45
13029;BME280;6581;42.662;23.402;2023-04-08T06:52:48;95496.50;;;9.46;71.44
13029;BME280;6581;42.662;23.402;2023-04-08T06:55:15;95495.22;;;9.55;69.86
13029;BME280;6581;42.662;23.402;2023-04-08T06:57:42;95489.63;;;9.41;70.34
13029;BME280;6581;42.662;23.402;2023-04-08T07:00:12;95497.50;;;9.06;70.69
13029;BME280;6581;42.662;23.402;2023-04-08T07:02:39;95488.28;;;9.00;70.88
13029;BME280;6581;42.662;23.402;2023-04-08T07:05:06;95497.56;;;8.94;72.01
13029;BME280;6581;42.662;23.402;2023-04-08T07:07:33;95493.56;;;9.00;72.87
13029;BME280;6581;42.662;23.402;2023-04-08T07:10:00;95498.00;;;8.96;72.91
13029;BME280;6581;42.662;23.402;2023-04-08T07:12:28;95490.34;;;9.07;72.09
13029;BME280;6581;42.662;23.402;2023-04-08T07:15:22;95487.44;;;9.12;71.24
13029;BME280;6581;42.662;23.402;2023-04-08T07:17:49;95492.28;;;9.10;73.07
13029;BME280;6581;42.662;23.402;2023-04-08T07:20:16;95499.03;;;9.07;72.86
13029;BME280;6581;42.662;23.402;2023-04-08T07:22:43;95499.34;;;9.21;73.63
13029;BME280;6581;42.662;23.402;2023-04-08T07:25:10;95493.13;;;9.29;75.42
13029;BME280;6581;42.662;23.402;2023-04-08T07:27:37;95502.56;;;9.46;72.01
13029;BME280;6581;42.662;23.402;2023-04-08T07:30:06;95498.13;;;9.50;72.22
13029;BME280;6581;42.662;23.402;2023-04-08T07:32:34;95501.47;;;9.47;72.51
13029;BME280;6581;42.662;23.402;2023-04-08T07:35:02;95504.31;;;9.39;72.59
13029;BME280;6581;42.662;23.402;2023-04-08T07:37:29;95506.75;;;9.47;71.45
13029;BME280;6581;42.662;23.402;2023-04-08T07:39:56;95505.34;;;9.69;71.54
13029;BME280;6581;42.662;23.402;2023-04-08T07:42:23;95505.97;;;9.62;69.75
13029;BME280;6581;42.662;23.402;2023-04-08T07:44:50;95501.66;;;9.73;70.62
13029;BME280;6581;42.662;23.402;2023-04-08T07:47:17;95513.63;;;10.21;69.08
13029;BME280;6581;42.662;23.402;2023-04-08T07:50:12;95512.59;;;10.26;66.88
13029;BME280;6581;42.662;23.402;2023-04-08T07:52:39;95513.44;;;10.14;68.53
13029;BME280;6581;42.662;23.402;2023-04-08T07:55:07;95520.53;;;10.26;69.34
13029;BME280;6581;42.662;23.402;2023-04-08T07:57:34;95518.06;;;10.17;67.78
13029;BME280;6581;42.662;23.402;2023-04-08T08:00:01;95521.09;;;10.00;68.54
13029;BME280;6581;42.662;23.402;2023-04-08T08:02:38;95515.94;;;9.88;68.54
13029;BME280;6581;42.662;23.402;2023-04-08T08:05:06;95523.25;;;9.75;67.71
13029;BME280;6581;42.662;23.402;2023-04-08T08:07:35;95527.56;;;9.84;68.06
13029;BME280;6581;42.662;23.402;2023-04-08T08:10:02;95529.09;;;9.85;68.03
13029;BME280;6581;42.662;23.402;2023-04-08T08:12:29;95521.47;;;9.99;69.93
13029;BME280;6581;42.662;23.402;2023-04-08T08:14:56;95526.75;;;9.99;67.40
13029;BME280;6581;42.662;23.402;2023-04-08T08:17:24;95529.66;;;10.13;67.42
13029;BME280;6581;42.662;23.402;2023-04-08T08:19:54;95532.75;;;10.15;67.49
13029;BME280;6581;42.662;23.402;2023-04-08T08:22:21;95534.38;;;10.39;68.17
13029;BME280;6581;42.662;23.402;2023-04-08T08:24:54;95533.56;;;10.35;66.10
13029;BME280;6581;42.662;23.402;2023-04-08T08:27:21;95528.16;;;10.31;69.26
13029;BME280;6581;42.662;23.402;2023-04-08T08:29:48;95531.34;;;10.59;66.15
13029;BME280;6581;42.662;23.402;2023-04-08T08:32:15;95533.78;;;10.68;65.40
13029;BME280;6581;42.662;23.402;2023-04-08T08:35:07;95535.84;;;10.78;65.59
13029;BME280;6581;42.662;23.402;2023-04-08T08:37:34;95543.91;;;10.62;65.86
13029;BME280;6581;42.662;23.402;2023-04-08T08:40:03;95535.81;;;10.75;65.81
13029;BME280;6581;42.662;23.402;2023-04-08T08:42:30;95543.41;;;10.76;65.51
13029;BME280;6581;42.662;23.402;2023-04-08T08:45:00;95541.34;;;10.89;64.52
13029;BME280;6581;42.662;23.402;2023-04-08T08:47:28;95542.38;;;10.42;66.21
13029;BME280;6581;42.662;23.402;2023-04-08T08:49:56;95545.38;;;10.41;66.38
13029;BME280;6581;42.662;23.402;2023-04-08T08:52:25;95539.91;;;10.49;67.49
13029;BME280;6581;42.662;23.402;2023-04-08T08:54:57;95546.97;;;10.45;66.02
13029;BME280;6581;42.662;23.402;2023-04-08T08:57:25;95551.72;;;10.36;68.30
13029;BME280;6581;42.662;23.402;2023-04-08T08:59:52;95553.25;;;10.76;68.43
13029;BME280;6581;42.662;23.402;2023-04-08T09:02:24;95549.50;;;10.99;66.76
13029;BME280;6581;42.662;23.402;2023-04-08T09:04:57;95550.44;;;11.10;65.26
13029;BME280;6581;42.662;23.402;2023-04-08T09:07:26;95547.91;;;10.95;65.12
13029;BME280;6581;42.662;23.402;2023-04-08T09:09:55;95550.63;;;11.21;65.16
13029;BME280;6581;42.662;23.402;2023-04-08T09:12:24;95554.19;;;11.32;63.94
13029;BME280;6581;42.662;23.402;2023-04-08T09:15:02;95554.13;;;10.83;63.80
13029;BME280;6581;42.662;23.402;2023-04-08T09:17:33;95549.50;;;10.99;64.73
13029;BME280;6581;42.662;23.402;2023-04-08T09:20:07;95550.34;;;10.84;66.10
13029;BME280;6581;42.662;23.402;2023-04-08T09:22:56;95546.34;;;10.71;67.42
13029;BME280;6581;42.662;23.402;2023-04-08T09:25:23;95538.88;;;10.77;66.39
13029;BME280;6581;42.662;23.402;2023-04-08T09:27:53;95546.38;;;10.94;67.70
13029;BME280;6581;42.662;23.402;2023-04-08T09:30:22;95551.00;;;11.00;66.50
13029;BME280;6581;42.662;23.402;2023-04-08T09:32:51;95547.59;;;11.00;65.87
13029;BME280;6581;42.662;23.402;2023-04-08T09:35:19;95536.59;;;10.98;66.76
13029;BME280;6581;42.662;23.402;2023-04-08T09:37:47;95534.56;;;11.37;65.36
13029;BME280;6581;42.662;23.402;2023-04-08T09:40:14;95524.63;;;11.30;63.82
13029;BME280;6581;42.662;23.402;2023-04-08T09:42:44;95522.34;;;11.32;64.36
13029;BME280;6581;42.662;23.402;2023-04-08T09:45:15;95518.75;;;10.95;64.15
13029;BME280;6581;42.662;23.402;2023-04-08T09:47:51;95522.72;;;11.31;62.84
13029;BME280;6581;42.662;23.402;2023-04-08T09:50:23;95518.53;;;11.30;66.03
13029;BME280;6581;42.662;23.402;2023-04-08T09:52:57;95512.47;;;11.29;63.51
13029;BME280;6581;42.662;23.402;2023-04-08T09:55:27;95509.59;;;11.15;62.77
13029;BME280;6581;42.662;23.402;2023-04-08T09:57:58;95511.66;;;11.51;63.40
13029;BME280;6581;42.662;23.402;2023-04-08T10:00:31;95511.63;;;11.48;64.46
13029;BME280;6581;42.662;23.402;2023-04-08T10:03:04;95508.72;;;11.83;63.42
13029;BME280;6581;42.662;23.402;2023-04-08T10:05:36;95501.81;;;11.78;59.98
13029;BME280;6581;42.662;23.402;2023-04-08T10:08:04;95500.03;;;11.60;59.04
13029;BME280;6581;42.662;23.402;2023-04-08T10:10:33;95494.31;;;11.57;60.96
13029;BME280;6581;42.662;23.402;2023-04-08T10:13:01;95494.31;;;11.84;60.25
13029;BME280;6581;42.662;23.402;2023-04-08T10:15:31;95487.66;;;11.97;59.39
13029;BME280;6581;42.662;23.402;2023-04-08T10:18:29;95488.47;;;12.01;60.80
13029;BME280;6581;42.662;23.402;2023-04-08T10:20:56;95481.00;;;12.10;58.76
13029;BME280;6581;42.662;23.402;2023-04-08T10:23:54;95490.59;;;11.88;58.23
13029;BME280;6581;42.662;23.402;2023-04-08T10:26:31;95483.97;;;11.75;61.42
13029;BME280;6581;42.662;23.402;2023-04-08T10:29:30;95491.31;;;11.85;58.99
13029;BME280;6581;42.662;23.402;2023-04-08T10:31:59;95487.13;;;11.58;58.02
13029;BME280;6581;42.662;23.402;2023-04-08T10:34:27;95489.06;;;11.61;58.92
13029;BME280;6581;42.662;23.402;2023-04-08T10:36:56;95495.66;;;11.44;57.74
13029;BME280;6581;42.662;23.402;2023-04-08T10:39:26;95481.50;;;11.37;59.37
13029;BME280;6581;42.662;23.402;2023-04-08T10:41:54;95478.66;;;11.49;60.22
13029;BME280;6581;42.662;23.402;2023-04-08T10:44:23;95488.66;;;11.59;57.73
13029;BME280;6581;42.662;23.402;2023-04-08T10:46:52;95484.72;;;11.72;57.64
13029;BME280;6581;42.662;23.402;2023-04-08T10:49:20;95483.25;;;11.78;57.46
13029;BME280;6581;42.662;23.402;2023-04-08T10:51:48;95484.88;;;11.60;57.51
13029;BME280;6581;42.662;23.402;2023-04-08T10:54:17;95465.94;;;11.32;57.60
13029;BME280;6581;42.662;23.402;2023-04-08T10:56:45;95468.41;;;11.47;59.34
13029;BME280;6581;42.662;23.402;2023-04-08T10:59:14;95474.47;;;11.48;58.40
13029;BME280;6581;42.662;23.402;2023-04-08T11:01:45;95468.09;;;11.52;58.39
13029;BME280;6581;42.662;23.402;2023-04-08T11:04:13;95460.56;;;11.54;59.20
13029;BME280;6581;42.662;23.402;2023-04-08T11:06:44;95450.81;;;11.92;57.26
13029;BME280;6581;42.662;23.402;2023-04-08T11:09:13;95444.66;;;12.14;55.38
13029;BME280;6581;42.662;23.402;2023-04-08T11:11:42;95447.34;;;12.18;53.46
13029;BME280;6581;42.662;23.402;2023-04-08T11:14:09;95445.25;;;12.01;54.01
13029;BME280;6581;42.662;23.402;2023-04-08T11:16:38;95451.13;;;12.20;54.66
13029;BME280;6581;42.662;23.402;2023-04-08T11:19:06;95447.78;;;12.23;54.66
13029;BME280;6581;42.662;23.402;2023-04-08T11:21:35;95449.38;;;12.31;54.70
13029;BME280;6581;42.662;23.402;2023-04-08T11:24:08;95442.78;;;12.55;53.43
13029;BME280;6581;42.662;23.402;2023-04-08T11:26:37;95439.06;;;12.67;54.63
13029;BME280;6581;42.662;23.402;2023-04-08T11:29:05;95441.19;;;12.91;54.53
13029;BME280;6581;42.662;23.402;2023-04-08T11:32:00;95431.16;;;13.18;51.54
13029;BME280;6581;42.662;23.402;2023-04-08T11:34:27;95433.06;;;13.17;50.67
13029;BME280;6581;42.662;23.402;2023-04-08T11:36:55;95429.38;;;13.36;48.44
13029;BME280;6581;42.662;23.402;2023-04-08T11:39:24;95430.81;;;13.19;48.50
13029;BME280;6581;42.662;23.402;2023-04-08T11:41:51;95433.69;;;13.04;47.43
13029;BME280;6581;42.662;23.402;2023-04-08T11:44:19;95425.59;;;12.89;48.06
13029;BME280;6581;42.662;23.402;2023-04-08T11:46:51;95423.66;;;12.83;49.32
13029;BME280;6581;42.662;23.402;2023-04-08T11:49:19;95426.16;;;12.65;50.32
13029;BME280;6581;42.662;23.402;2023-04-08T11:51:54;95415.03;;;12.97;50.92
13029;BME280;6581;42.662;23.402;2023-04-08T11:54:30;95412.53;;;13.18;49.23
13029;BME280;6581;42.662;23.402;2023-04-08T11:57:27;95413.00;;;13.34;50.65
13029;BME280;6581;42.662;23.402;2023-04-08T11:59:55;95411.88;;;13.35;50.45
13029;BME280;6581;42.662;23.402;2023-04-08T12:03:12;95410.78;;;12.88;51.51
13029;BME280;6581;42.662;23.402;2023-04-08T12:05:39;95411.19;;;12.94;52.96
13029;BME280;6581;42.662;23.402;2023-04-08T12:08:07;95401.66;;;12.89;51.22
13029;BME280;6581;42.662;23.402;2023-04-08T12:10:35;95399.13;;;13.07;50.70
13029;BME280;6581;42.662;23.402;2023-04-08T12:13:02;95403.56;;;13.44;49.41
13029;BME280;6581;42.662;23.402;2023-04-08T12:15:29;95398.00;;;13.70;49.08
13029;BME280;6581;42.662;23.402;2023-04-08T12:17:57;95403.03;;;13.96;46.34
13029;BME280;6581;42.662;23.402;2023-04-08T12:20:25;95401.19;;;14.14;43.82
13029;BME280;6581;42.662;23.402;2023-04-08T12:22:52;95397.38;;;14.08;43.88
13029;BME280;6581;42.662;23.402;2023-04-08T12:25:19;95395.09;;;14.07;44.21
13029;BME280;6581;42.662;23.402;2023-04-08T12:27:48;95398.44;;;13.90;45.22
13029;BME280;6581;42.662;23.402;2023-04-08T12:30:16;95410.63;;;13.84;45.46
13029;BME280;6581;42.662;23.402;2023-04-08T12:32:43;95393.13;;;13.90;45.92
13029;BME280;6581;42.662;23.402;2023-04-08T12:35:12;95396.59;;;14.01;46.33
13029;BME280;6581;42.662;23.402;2023-04-08T12:37:39;95392.03;;;14.01;45.17
13029;BME280;6581;42.662;23.402;2023-04-08T12:40:07;95374.53;;;13.97;46.51
13029;BME280;6581;42.662;23.402;2023-04-08T12:42:34;95374.50;;;13.93;47.65
13029;BME280;6581;42.662;23.402;2023-04-08T12:45:04;95374.53;;;13.97;48.24
13029;BME280;6581;42.662;23.402;2023-04-08T12:47:31;95368.47;;;14.07;49.39
13029;BME280;6581;42.662;23.402;2023-04-08T12:50:24;95384.72;;;13.81;50.01
13029;BME280;6581;42.662;23.402;2023-04-08T12:52:51;95372.41;;;13.48;49.87
13029;BME280;6581;42.662;23.402;2023-04-08T12:55:18;95368.06;;;13.15;51.33
13029;BME280;6581;42.662;23.402;2023-04-08T12:57:45;95369.97;;;13.18;51.53
13029;BME280;6581;42.662;23.402;2023-04-08T13:00:14;95374.19;;;13.22;49.81
13029;BME280;6581;42.662;23.402;2023-04-08T13:02:41;95368.53;;;13.27;49.57
13029;BME280;6581;42.662;23.402;2023-04-08T13:05:08;95373.50;;;13.40;48.83
13029;BME280;6581;42.662;23.402;2023-04-08T13:07:36;95366.72;;;13.53;49.32
13029;BME280;6581;42.662;23.402;2023-04-08T13:10:04;95365.88;;;13.35;50.21
13029;BME280;6581;42.662;23.402;2023-04-08T13:12:32;95361.66;;;13.23;49.64
13029;BME280;6581;42.662;23.402;2023-04-08T13:14:59;95368.59;;;13.38;48.49
13029;BME280;6581;42.662;23.402;2023-04-08T13:17:28;95361.03;;;13.47;47.89
13029;BME280;6581;42.662;23.402;2023-04-08T13:20:20;95365.97;;;13.52;46.91
13029;BME280;6581;42.662;23.402;2023-04-08T13:22:50;95371.75;;;13.65;47.93